sensor_id;sensor_type;location;lat;lon;timestamp;P1;durP1;ratioP1;P2;durP2;ratioP2
2119;SDS011;1066;52.540;13.420;2023-06-22T00:00:30;12.67;;;11.67;;
2119;SDS011;1066;52.540;13.420;2023-06-22T00:02:55;13.90;;;12.80;;
2119;SDS011;1066;52.540;13.420;2023-06-22T00:05:20;13.63;;;12.40;;
2119;SDS011;1066;52.540;13.420;2023-06-22T00:07:46;13.23;;;12.23;;
2119;SDS011;1066;52.540;13.420;2023-06-22T00:10:11;13.10;;;12.00;;
2119;SDS011;1066;52.540;13.420;2023-06-22T00:12:36;13.30;;;12.20;;
2119;SDS011;1066;52.540;13.420;2023-06-22T00:15:02;11.70;;;10.60;;
2119;SDS011;1066;52.540;13.420;2023-06-22T00:17:27;13.20;;;12.10;;
2119;SDS011;1066;52.540;13.420;2023-06-22T00:19:52;13.43;;;12.33;;
2119;SDS011;1066;52.540;13.420;2023-06-22T00:22:20;13.13;;;12.17;;
2119;SDS011;1066;52.540;13.420;2023-06-22T00:24:56;13.77;;;12.67;;
2119;SDS011;1066;52.540;13.420;2023-06-22T00:27:22;13.70;;;12.43;;
2119;SDS011;1066;52.540;13.420;2023-06-22T00:29:47;12.97;;;11.97;;
2119;SDS011;1066;52.540;13.420;2023-06-22T00:32:12;14.00;;;12.80;;
2119;SDS011;1066;52.540;13.420;2023-06-22T00:34:37;14.03;;;12.63;;
2119;SDS011;1066;52.540;13.420;2023-06-22T00:37:02;13.23;;;12.17;;
2119;SDS011;1066;52.540;13.420;2023-06-22T00:39:28;13.10;;;12.10;;
2119;SDS011;1066;52.540;13.420;2023-06-22T00:41:53;13.40;;;12.30;;
2119;SDS011;1066;52.540;13.420;2023-06-22T00:44:18;13.50;;;12.17;;
2119;SDS011;1066;52.540;13.420;2023-06-22T00:46:43;13.03;;;12.00;;
2119;SDS011;1066;52.540;13.420;2023-06-22T00:49:09;13.80;;;12.10;;
2119;SDS011;1066;52.540;13.420;2023-06-22T00:51:34;14.00;;;12.80;;
2119;SDS011;1066;52.540;13.420;2023-06-22T00:54:01;13.13;;;12.07;;
2119;SDS011;1066;52.540;13.420;2023-06-22T00:56:26;12.60;;;11.60;;
2119;SDS011;1066;52.540;13.420;2023-06-22T00:58:54;13.80;;;12.70;;
2119;SDS011;1066;52.540;13.420;2023-06-22T01:01:22;13.60;;;12.50;;
2119;SDS011;1066;52.540;13.420;2023-06-22T01:03:47;13.37;;;12.27;;
2119;SDS011;1066;52.540;13.420;2023-06-22T01:06:15;13.23;;;12.03;;
2119;SDS011;1066;52.540;13.420;2023-06-22T01:08:42;13.30;;;12.30;;
2119;SDS011;1066;52.540;13.420;2023-06-22T01:11:22;12.30;;;11.30;;
2119;SDS011;1066;52.540;13.420;2023-06-22T01:16:23;13.70;;;12.70;;
2119;SDS011;1066;52.540;13.420;2023-06-22T01:18:50;12.97;;;11.97;;
2119;SDS011;1066;52.540;13.420;2023-06-22T01:21:17;13.27;;;11.97;;
2119;SDS011;1066;52.540;13.420;2023-06-22T01:23:59;15.70;;;11.40;;
2119;SDS011;1066;52.540;13.420;2023-06-22T01:28:53;11.60;;;10.70;;
2119;SDS011;1066;52.540;13.420;2023-06-22T01:31:20;14.03;;;12.93;;
2119;SDS011;1066;52.540;13.420;2023-06-22T01:33:48;13.50;;;12.43;;
2119;SDS011;1066;52.540;13.420;2023-06-22T01:36:14;12.97;;;12.07;;
2119;SDS011;1066;52.540;13.420;2023-06-22T01:38:41;13.00;;;11.80;;
2119;SDS011;1066;52.540;13.420;2023-06-22T01:41:07;13.30;;;12.30;;
2119;SDS011;1066;52.540;13.420;2023-06-22T01:43:32;13.60;;;12.50;;
2119;SDS011;1066;52.540;13.420;2023-06-22T01:45:59;15.37;;;14.17;;
2119;SDS011;1066;52.540;13.420;2023-06-22T01:48:24;14.30;;;13.13;;
2119;SDS011;1066;52.540;13.420;2023-06-22T01:50:51;14.00;;;12.80;;
2119;SDS011;1066;52.540;13.420;2023-06-22T01:53:16;15.73;;;14.43;;
2119;SDS011;1066;52.540;13.420;2023-06-22T01:55:41;14.27;;;13.03;;
2119;SDS011;1066;52.540;13.420;2023-06-22T01:58:07;16.20;;;14.80;;
2119;SDS011;1066;52.540;13.420;2023-06-22T02:00:33;16.13;;;14.80;;
2119;SDS011;1066;52.540;13.420;2023-06-22T02:05:23;14.83;;;13.43;;
2119;SDS011;1066;52.540;13.420;2023-06-22T02:07:54;14.37;;;13.07;;
2119;SDS011;1066;52.540;13.420;2023-06-22T02:10:21;15.77;;;14.33;;
2119;SDS011;1066;52.540;13.420;2023-06-22T02:12:47;14.03;;;12.80;;
2119;SDS011;1066;52.540;13.420;2023-06-22T02:15:13;15.03;;;13.93;;
2119;SDS011;1066;52.540;13.420;2023-06-22T02:17:39;15.20;;;13.80;;
2119;SDS011;1066;52.540;13.420;2023-06-22T02:20:11;15.10;;;13.80;;
2119;SDS011;1066;52.540;13.420;2023-06-22T02:22:37;14.30;;;13.10;;
2119;SDS011;1066;52.540;13.420;2023-06-22T02:25:02;15.63;;;14.33;;
2119;SDS011;1066;52.540;13.420;2023-06-22T02:27:27;16.00;;;14.67;;
2119;SDS011;1066;52.540;13.420;2023-06-22T02:29:52;15.27;;;13.87;;
2119;SDS011;1066;52.540;13.420;2023-06-22T02:32:18;14.97;;;13.77;;
2119;SDS011;1066;52.540;13.420;2023-06-22T02:34:43;14.07;;;12.97;;
2119;SDS011;1066;52.540;13.420;2023-06-22T02:37:12;14.50;;;13.20;;
2119;SDS011;1066;52.540;13.420;2023-06-22T02:39:39;16.03;;;14.63;;
2119;SDS011;1066;52.540;13.420;2023-06-22T02:42:05;15.23;;;13.87;;
2119;SDS011;1066;52.540;13.420;2023-06-22T02:44:30;15.37;;;14.10;;
2119;SDS011;1066;52.540;13.420;2023-06-22T02:46:56;15.73;;;14.43;;
2119;SDS011;1066;52.540;13.420;2023-06-22T02:49:21;15.37;;;13.97;;
2119;SDS011;1066;52.540;13.420;2023-06-22T02:51:46;15.83;;;14.37;;
2119;SDS011;1066;52.540;13.420;2023-06-22T02:54:12;16.03;;;14.63;;
2119;SDS011;1066;52.540;13.420;2023-06-22T02:56:37;14.40;;;13.20;;
2119;SDS011;1066;52.540;13.420;2023-06-22T02:59:02;13.80;;;12.50;;
2119;SDS011;1066;52.540;13.420;2023-06-22T03:01:28;13.97;;;12.87;;
2119;SDS011;1066;52.540;13.420;2023-06-22T03:03:55;16.00;;;14.60;;
2119;SDS011;1066;52.540;13.420;2023-06-22T03:06:20;16.63;;;15.17;;
2119;SDS011;1066;52.540;13.420;2023-06-22T03:08:48;15.80;;;14.30;;
2119;SDS011;1066;52.540;13.420;2023-06-22T03:11:14;16.63;;;15.33;;
2119;SDS011;1066;52.540;13.420;2023-06-22T03:13:39;14.80;;;13.70;;
2119;SDS011;1066;52.540;13.420;2023-06-22T03:16:04;15.87;;;14.47;;
2119;SDS011;1066;52.540;13.420;2023-06-22T03:18:29;15.33;;;14.07;;
2119;SDS011;1066;52.540;13.420;2023-06-22T03:20:54;15.53;;;14.20;;
2119;SDS011;1066;52.540;13.420;2023-06-22T03:23:20;14.57;;;13.37;;
2119;SDS011;1066;52.540;13.420;2023-06-22T03:25:45;15.47;;;14.27;;
2119;SDS011;1066;52.540;13.420;2023-06-22T03:28:10;17.00;;;15.30;;
2119;SDS011;1066;52.540;13.420;2023-06-22T03:30:36;16.13;;;14.63;;
2119;SDS011;1066;52.540;13.420;2023-06-22T03:33:01;16.23;;;14.83;;
2119;SDS011;1066;52.540;13.420;2023-06-22T03:35:26;14.30;;;13.00;;
2119;SDS011;1066;52.540;13.420;2023-06-22T03:37:51;14.37;;;13.00;;
2119;SDS011;1066;52.540;13.420;2023-06-22T03:40:16;16.50;;;14.77;;
2119;SDS011;1066;52.540;13.420;2023-06-22T03:42:42;15.50;;;14.20;;
2119;SDS011;1066;52.540;13.420;2023-06-22T03:45:07;14.10;;;12.97;;
2119;SDS011;1066;52.540;13.420;2023-06-22T03:47:32;14.73;;;13.53;;
2119;SDS011;1066;52.540;13.420;2023-06-22T03:49:58;14.13;;;12.83;;
2119;SDS011;1066;52.540;13.420;2023-06-22T03:52:23;13.50;;;12.40;;
2119;SDS011;1066;52.540;13.420;2023-06-22T03:54:50;13.90;;;12.70;;
2119;SDS011;1066;52.540;13.420;2023-06-22T03:57:15;14.20;;;13.10;;
2119;SDS011;1066;52.540;13.420;2023-06-22T03:59:40;16.00;;;12.80;;
2119;SDS011;1066;52.540;13.420;2023-06-22T04:02:05;14.70;;;13.30;;
2119;SDS011;1066;52.540;13.420;2023-06-22T04:04:31;13.43;;;12.43;;
2119;SDS011;1066;52.540;13.420;2023-06-22T04:06:56;13.93;;;12.77;;
2119;SDS011;1066;52.540;13.420;2023-06-22T04:09:21;12.80;;;11.80;;
2119;SDS011;1066;52.540;13.420;2023-06-22T04:11:46;13.73;;;12.20;;
2119;SDS011;1066;52.540;13.420;2023-06-22T04:14:12;12.73;;;11.50;;
2119;SDS011;1066;52.540;13.420;2023-06-22T04:16:37;11.63;;;10.73;;
2119;SDS011;1066;52.540;13.420;2023-06-22T04:19:02;12.00;;;10.80;;
2119;SDS011;1066;52.540;13.420;2023-06-22T04:21:27;10.00;;;9.10;;
2119;SDS011;1066;52.540;13.420;2023-06-22T04:23:53;11.17;;;10.17;;
2119;SDS011;1066;52.540;13.420;2023-06-22T04:26:18;10.60;;;9.67;;
2119;SDS011;1066;52.540;13.420;2023-06-22T04:28:45;10.20;;;9.13;;
2119;SDS011;1066;52.540;13.420;2023-06-22T04:31:16;10.50;;;9.70;;
2119;SDS011;1066;52.540;13.420;2023-06-22T04:33:41;11.37;;;10.40;;
2119;SDS011;1066;52.540;13.420;2023-06-22T04:36:06;10.70;;;9.80;;
2119;SDS011;1066;52.540;13.420;2023-06-22T04:38:32;10.93;;;10.03;;
2119;SDS011;1066;52.540;13.420;2023-06-22T04:41:00;10.50;;;9.50;;
2119;SDS011;1066;52.540;13.420;2023-06-22T04:43:28;11.07;;;9.80;;
2119;SDS011;1066;52.540;13.420;2023-06-22T04:45:56;9.60;;;8.43;;
2119;SDS011;1066;52.540;13.420;2023-06-22T04:48:28;10.40;;;9.50;;
2119;SDS011;1066;52.540;13.420;2023-06-22T04:50:57;9.97;;;9.07;;
2119;SDS011;1066;52.540;13.420;2023-06-22T04:53:28;10.40;;;9.50;;
2119;SDS011;1066;52.540;13.420;2023-06-22T04:55:54;10.23;;;9.30;;
2119;SDS011;1066;52.540;13.420;2023-06-22T04:58:19;9.17;;;8.37;;
2119;SDS011;1066;52.540;13.420;2023-06-22T05:00:46;8.73;;;7.87;;
2119;SDS011;1066;52.540;13.420;2023-06-22T05:03:11;9.27;;;8.40;;
2119;SDS011;1066;52.540;13.420;2023-06-22T05:05:37;8.50;;;7.00;;
2119;SDS011;1066;52.540;13.420;2023-06-22T05:08:02;7.50;;;6.90;;
2119;SDS011;1066;52.540;13.420;2023-06-22T05:10:27;6.60;;;6.00;;
2119;SDS011;1066;52.540;13.420;2023-06-22T05:12:53;7.20;;;6.50;;
2119;SDS011;1066;52.540;13.420;2023-06-22T05:15:18;6.60;;;6.10;;
2119;SDS011;1066;52.540;13.420;2023-06-22T05:17:47;7.07;;;6.47;;
2119;SDS011;1066;52.540;13.420;2023-06-22T05:20:12;6.63;;;6.03;;
2119;SDS011;1066;52.540;13.420;2023-06-22T05:22:38;6.60;;;5.90;;
2119;SDS011;1066;52.540;13.420;2023-06-22T05:25:05;6.97;;;6.23;;
2119;SDS011;1066;52.540;13.420;2023-06-22T05:27:31;7.67;;;6.60;;
2119;SDS011;1066;52.540;13.420;2023-06-22T05:29:56;8.20;;;5.17;;
2119;SDS011;1066;52.540;13.420;2023-06-22T05:32:21;6.23;;;5.63;;
2119;SDS011;1066;52.540;13.420;2023-06-22T05:34:46;7.57;;;5.83;;
2119;SDS011;1066;52.540;13.420;2023-06-22T05:37:12;5.47;;;5.00;;
2119;SDS011;1066;52.540;13.420;2023-06-22T05:39:37;6.30;;;5.80;;
2119;SDS011;1066;52.540;13.420;2023-06-22T05:42:04;6.33;;;5.80;;
2119;SDS011;1066;52.540;13.420;2023-06-22T05:44:29;7.00;;;5.47;;
2119;SDS011;1066;52.540;13.420;2023-06-22T05:46:54;5.80;;;5.20;;
2119;SDS011;1066;52.540;13.420;2023-06-22T05:49:19;5.67;;;5.17;;
2119;SDS011;1066;52.540;13.420;2023-06-22T05:51:47;7.23;;;5.10;;
2119;SDS011;1066;52.540;13.420;2023-06-22T05:54:12;5.97;;;5.47;;
2119;SDS011;1066;52.540;13.420;2023-06-22T05:56:38;6.03;;;5.30;;
2119;SDS011;1066;52.540;13.420;2023-06-22T05:59:04;5.53;;;4.93;;
2119;SDS011;1066;52.540;13.420;2023-06-22T06:01:29;6.00;;;5.50;;
2119;SDS011;1066;52.540;13.420;2023-06-22T06:03:59;6.50;;;5.33;;
2119;SDS011;1066;52.540;13.420;2023-06-22T06:06:24;5.77;;;5.33;;
2119;SDS011;1066;52.540;13.420;2023-06-22T06:08:53;7.23;;;6.63;;
2119;SDS011;1066;52.540;13.420;2023-06-22T06:11:18;6.13;;;5.47;;
2119;SDS011;1066;52.540;13.420;2023-06-22T06:13:43;6.20;;;5.60;;
2119;SDS011;1066;52.540;13.420;2023-06-22T06:16:10;7.13;;;5.43;;
2119;SDS011;1066;52.540;13.420;2023-06-22T06:18:35;6.37;;;5.30;;
2119;SDS011;1066;52.540;13.420;2023-06-22T06:21:02;6.73;;;5.10;;
2119;SDS011;1066;52.540;13.420;2023-06-22T06:23:27;9.70;;;6.27;;
2119;SDS011;1066;52.540;13.420;2023-06-22T06:25:52;6.90;;;5.73;;
2119;SDS011;1066;52.540;13.420;2023-06-22T06:28:18;6.50;;;5.93;;
2119;SDS011;1066;52.540;13.420;2023-06-22T06:30:43;6.63;;;5.67;;
2119;SDS011;1066;52.540;13.420;2023-06-22T06:33:08;6.50;;;5.90;;
2119;SDS011;1066;52.540;13.420;2023-06-22T06:35:34;6.73;;;6.13;;
2119;SDS011;1066;52.540;13.420;2023-06-22T06:37:59;8.27;;;5.97;;
2119;SDS011;1066;52.540;13.420;2023-06-22T06:40:24;5.23;;;4.70;;
2119;SDS011;1066;52.540;13.420;2023-06-22T06:42:49;5.27;;;4.77;;
2119;SDS011;1066;52.540;13.420;2023-06-22T06:45:16;6.93;;;6.23;;
2119;SDS011;1066;52.540;13.420;2023-06-22T06:47:41;6.27;;;4.93;;
2119;SDS011;1066;52.540;13.420;2023-06-22T06:50:07;5.93;;;5.33;;
2119;SDS011;1066;52.540;13.420;2023-06-22T06:52:32;5.60;;;5.10;;
2119;SDS011;1066;52.540;13.420;2023-06-22T06:54:57;5.30;;;4.90;;
2119;SDS011;1066;52.540;13.420;2023-06-22T06:57:23;9.93;;;5.70;;
2119;SDS011;1066;52.540;13.420;2023-06-22T06:59:48;4.50;;;4.20;;
2119;SDS011;1066;52.540;13.420;2023-06-22T07:02:14;6.07;;;4.90;;
2119;SDS011;1066;52.540;13.420;2023-06-22T07:04:40;5.57;;;5.07;;
2119;SDS011;1066;52.540;13.420;2023-06-22T07:07:05;8.00;;;4.97;;
2119;SDS011;1066;52.540;13.420;2023-06-22T07:09:30;4.67;;;4.27;;
2119;SDS011;1066;52.540;13.420;2023-06-22T07:11:55;4.73;;;3.83;;
2119;SDS011;1066;52.540;13.420;2023-06-22T07:14:21;7.17;;;4.40;;
2119;SDS011;1066;52.540;13.420;2023-06-22T07:16:46;4.33;;;3.90;;
2119;SDS011;1066;52.540;13.420;2023-06-22T07:19:11;5.90;;;4.60;;
2119;SDS011;1066;52.540;13.420;2023-06-22T07:21:37;6.07;;;4.70;;
2119;SDS011;1066;52.540;13.420;2023-06-22T07:24:02;5.73;;;4.57;;
2119;SDS011;1066;52.540;13.420;2023-06-22T07:26:28;5.40;;;4.90;;
2119;SDS011;1066;52.540;13.420;2023-06-22T07:28:53;5.17;;;4.17;;
2119;SDS011;1066;52.540;13.420;2023-06-22T07:31:18;6.33;;;5.00;;
2119;SDS011;1066;52.540;13.420;2023-06-22T07:33:43;4.67;;;4.20;;
2119;SDS011;1066;52.540;13.420;2023-06-22T07:36:09;6.30;;;4.40;;
2119;SDS011;1066;52.540;13.420;2023-06-22T07:38:34;8.13;;;5.57;;
2119;SDS011;1066;52.540;13.420;2023-06-22T07:41:00;6.80;;;4.40;;
2119;SDS011;1066;52.540;13.420;2023-06-22T07:43:25;4.63;;;3.57;;
2119;SDS011;1066;52.540;13.420;2023-06-22T07:45:50;4.70;;;4.10;;
2119;SDS011;1066;52.540;13.420;2023-06-22T07:48:22;8.50;;;4.13;;
2119;SDS011;1066;52.540;13.420;2023-06-22T07:50:47;5.50;;;4.67;;
2119;SDS011;1066;52.540;13.420;2023-06-22T07:53:12;6.67;;;4.50;;
2119;SDS011;1066;52.540;13.420;2023-06-22T07:55:38;7.47;;;4.27;;
2119;SDS011;1066;52.540;13.420;2023-06-22T07:58:03;8.73;;;5.00;;
2119;SDS011;1066;52.540;13.420;2023-06-22T08:00:28;7.80;;;4.83;;
2119;SDS011;1066;52.540;13.420;2023-06-22T08:02:53;5.40;;;4.43;;
2119;SDS011;1066;52.540;13.420;2023-06-22T08:05:19;4.70;;;4.20;;
2119;SDS011;1066;52.540;13.420;2023-06-22T08:07:44;10.17;;;4.23;;
2119;SDS011;1066;52.540;13.420;2023-06-22T08:10:12;7.23;;;4.67;;
2119;SDS011;1066;52.540;13.420;2023-06-22T08:12:38;5.90;;;5.07;;
2119;SDS011;1066;52.540;13.420;2023-06-22T08:15:04;12.80;;;4.67;;
2119;SDS011;1066;52.540;13.420;2023-06-22T08:17:29;13.50;;;5.17;;
2119;SDS011;1066;52.540;13.420;2023-06-22T08:19:56;12.43;;;4.40;;
2119;SDS011;1066;52.540;13.420;2023-06-22T08:22:21;7.67;;;3.97;;
2119;SDS011;1066;52.540;13.420;2023-06-22T08:24:47;7.87;;;3.93;;
2119;SDS011;1066;52.540;13.420;2023-06-22T08:27:13;5.40;;;4.70;;
2119;SDS011;1066;52.540;13.420;2023-06-22T08:29:39;3.87;;;3.47;;
2119;SDS011;1066;52.540;13.420;2023-06-22T08:32:04;7.50;;;4.23;;
2119;SDS011;1066;52.540;13.420;2023-06-22T08:34:30;3.67;;;3.37;;
2119;SDS011;1066;52.540;13.420;2023-06-22T08:36:55;5.53;;;3.73;;
2119;SDS011;1066;52.540;13.420;2023-06-22T08:39:20;5.93;;;3.40;;
2119;SDS011;1066;52.540;13.420;2023-06-22T08:41:46;6.40;;;3.97;;
2119;SDS011;1066;52.540;13.420;2023-06-22T08:44:12;7.73;;;4.13;;
2119;SDS011;1066;52.540;13.420;2023-06-22T08:46:37;5.80;;;4.63;;
2119;SDS011;1066;52.540;13.420;2023-06-22T08:49:04;4.73;;;4.33;;
2119;SDS011;1066;52.540;13.420;2023-06-22T08:51:29;5.03;;;4.53;;
2119;SDS011;1066;52.540;13.420;2023-06-22T08:53:54;7.40;;;4.70;;
2119;SDS011;1066;52.540;13.420;2023-06-22T08:56:19;5.30;;;4.80;;
2119;SDS011;1066;52.540;13.420;2023-06-22T08:58:45;6.30;;;4.10;;
2119;SDS011;1066;52.540;13.420;2023-06-22T09:01:10;5.53;;;4.20;;
2119;SDS011;1066;52.540;13.420;2023-06-22T09:03:35;4.37;;;3.97;;
2119;SDS011;1066;52.540;13.420;2023-06-22T09:06:02;4.53;;;4.13;;
2119;SDS011;1066;52.540;13.420;2023-06-22T09:08:27;6.70;;;4.43;;
2119;SDS011;1066;52.540;13.420;2023-06-22T09:10:53;5.67;;;4.17;;
2119;SDS011;1066;52.540;13.420;2023-06-22T09:13:18;8.70;;;4.50;;
2119;SDS011;1066;52.540;13.420;2023-06-22T09:15:43;6.23;;;4.40;;
2119;SDS011;1066;52.540;13.420;2023-06-22T09:18:13;5.23;;;4.47;;
2119;SDS011;1066;52.540;13.420;2023-06-22T09:20:38;5.40;;;3.93;;
2119;SDS011;1066;52.540;13.420;2023-06-22T09:23:03;4.40;;;3.93;;
2119;SDS011;1066;52.540;13.420;2023-06-22T09:25:28;4.10;;;3.80;;
2119;SDS011;1066;52.540;13.420;2023-06-22T09:27:54;4.03;;;3.73;;
2119;SDS011;1066;52.540;13.420;2023-06-22T09:30:19;4.47;;;4.07;;
2119;SDS011;1066;52.540;13.420;2023-06-22T09:32:44;4.03;;;3.63;;
2119;SDS011;1066;52.540;13.420;2023-06-22T09:35:10;5.53;;;3.80;;
2119;SDS011;1066;52.540;13.420;2023-06-22T09:37:37;5.63;;;4.20;;
2119;SDS011;1066;52.540;13.420;2023-06-22T09:40:03;4.13;;;3.73;;
2119;SDS011;1066;52.540;13.420;2023-06-22T09:42:33;4.87;;;4.27;;
2119;SDS011;1066;52.540;13.420;2023-06-22T09:44:59;8.77;;;4.00;;
2119;SDS011;1066;52.540;13.420;2023-06-22T09:47:24;5.20;;;4.30;;
2119;SDS011;1066;52.540;13.420;2023-06-22T09:49:49;5.63;;;3.93;;
2119;SDS011;1066;52.540;13.420;2023-06-22T09:52:15;4.67;;;4.00;;
2119;SDS011;1066;52.540;13.420;2023-06-22T09:54:40;3.90;;;3.60;;
2119;SDS011;1066;52.540;13.420;2023-06-22T09:57:06;5.50;;;5.00;;
2119;SDS011;1066;52.540;13.420;2023-06-22T09:59:31;9.77;;;5.67;;
2119;SDS011;1066;52.540;13.420;2023-06-22T10:01:56;5.10;;;4.50;;
2119;SDS011;1066;52.540;13.420;2023-06-22T10:04:21;4.40;;;4.00;;
2119;SDS011;1066;52.540;13.420;2023-06-22T10:06:46;8.60;;;4.83;;
2119;SDS011;1066;52.540;13.420;2023-06-22T10:09:12;4.07;;;3.70;;
2119;SDS011;1066;52.540;13.420;2023-06-22T10:11:37;10.50;;;4.93;;
2119;SDS011;1066;52.540;13.420;2023-06-22T10:14:03;8.20;;;5.33;;
2119;SDS011;1066;52.540;13.420;2023-06-22T10:16:32;8.53;;;4.90;;
2119;SDS011;1066;52.540;13.420;2023-06-22T10:18:58;5.27;;;4.87;;
2119;SDS011;1066;52.540;13.420;2023-06-22T10:21:23;10.17;;;4.33;;
2119;SDS011;1066;52.540;13.420;2023-06-22T10:23:48;5.10;;;4.70;;
2119;SDS011;1066;52.540;13.420;2023-06-22T10:26:13;4.80;;;4.33;;
2119;SDS011;1066;52.540;13.420;2023-06-22T10:28:38;5.73;;;4.80;;
2119;SDS011;1066;52.540;13.420;2023-06-22T10:31:04;5.00;;;4.50;;
2119;SDS011;1066;52.540;13.420;2023-06-22T10:33:29;4.57;;;4.17;;
2119;SDS011;1066;52.540;13.420;2023-06-22T10:35:55;4.60;;;4.30;;
2119;SDS011;1066;52.540;13.420;2023-06-22T10:38:20;5.30;;;4.57;;
2119;SDS011;1066;52.540;13.420;2023-06-22T10:40:45;4.80;;;4.40;;
2119;SDS011;1066;52.540;13.420;2023-06-22T10:43:11;4.93;;;4.43;;
2119;SDS011;1066;52.540;13.420;2023-06-22T10:45:36;7.60;;;4.73;;
2119;SDS011;1066;52.540;13.420;2023-06-22T10:48:01;4.53;;;4.23;;
2119;SDS011;1066;52.540;13.420;2023-06-22T10:50:26;4.80;;;4.30;;
2119;SDS011;1066;52.540;13.420;2023-06-22T10:52:52;4.53;;;3.90;;
2119;SDS011;1066;52.540;13.420;2023-06-22T10:55:17;5.30;;;4.90;;
2119;SDS011;1066;52.540;13.420;2023-06-22T10:57:42;4.80;;;4.30;;
2119;SDS011;1066;52.540;13.420;2023-06-22T11:00:09;4.63;;;4.23;;
2119;SDS011;1066;52.540;13.420;2023-06-22T11:02:36;5.33;;;4.83;;
2119;SDS011;1066;52.540;13.420;2023-06-22T11:05:01;4.97;;;4.57;;
2119;SDS011;1066;52.540;13.420;2023-06-22T11:07:26;5.40;;;4.13;;
2119;SDS011;1066;52.540;13.420;2023-06-22T11:09:53;5.57;;;5.00;;
2119;SDS011;1066;52.540;13.420;2023-06-22T11:12:19;4.50;;;4.10;;
2119;SDS011;1066;52.540;13.420;2023-06-22T11:14:44;4.93;;;4.43;;
2119;SDS011;1066;52.540;13.420;2023-06-22T11:17:09;5.97;;;4.73;;
2119;SDS011;1066;52.540;13.420;2023-06-22T11:19:34;4.70;;;4.20;;
2119;SDS011;1066;52.540;13.420;2023-06-22T11:21:59;4.93;;;4.20;;
2119;SDS011;1066;52.540;13.420;2023-06-22T11:24:25;5.70;;;4.60;;
2119;SDS011;1066;52.540;13.420;2023-06-22T11:26:50;4.50;;;4.20;;
2119;SDS011;1066;52.540;13.420;2023-06-22T11:29:15;4.40;;;4.10;;
2119;SDS011;1066;52.540;13.420;2023-06-22T11:31:40;4.70;;;4.30;;
2119;SDS011;1066;52.540;13.420;2023-06-22T11:34:07;5.33;;;4.43;;
2119;SDS011;1066;52.540;13.420;2023-06-22T11:36:32;6.27;;;5.00;;
2119;SDS011;1066;52.540;13.420;2023-06-22T11:38:58;12.47;;;7.63;;
2119;SDS011;1066;52.540;13.420;2023-06-22T11:41:23;6.30;;;5.00;;
2119;SDS011;1066;52.540;13.420;2023-06-22T11:43:48;5.23;;;4.57;;
2119;SDS011;1066;52.540;13.420;2023-06-22T11:46:14;4.83;;;4.33;;
2119;SDS011;1066;52.540;13.420;2023-06-22T11:48:39;5.83;;;4.00;;
2119;SDS011;1066;52.540;13.420;2023-06-22T11:51:04;6.33;;;5.13;;
2119;SDS011;1066;52.540;13.420;2023-06-22T11:53:31;5.00;;;4.50;;
2119;SDS011;1066;52.540;13.420;2023-06-22T11:55:56;7.30;;;3.80;;
2119;SDS011;1066;52.540;13.420;2023-06-22T11:58:22;7.37;;;4.50;;
2119;SDS011;1066;52.540;13.420;2023-06-22T12:00:47;5.43;;;4.93;;
2119;SDS011;1066;52.540;13.420;2023-06-22T12:03:12;7.77;;;5.53;;
2119;SDS011;1066;52.540;13.420;2023-06-22T12:05:39;5.47;;;5.00;;
2119;SDS011;1066;52.540;13.420;2023-06-22T12:08:04;5.07;;;4.57;;
2119;SDS011;1066;52.540;13.420;2023-06-22T12:10:30;9.53;;;4.30;;
2119;SDS011;1066;52.540;13.420;2023-06-22T12:12:55;5.17;;;4.67;;
2119;SDS011;1066;52.540;13.420;2023-06-22T12:15:22;5.30;;;4.07;;
2119;SDS011;1066;52.540;13.420;2023-06-22T12:17:47;5.30;;;4.80;;
2119;SDS011;1066;52.540;13.420;2023-06-22T12:20:13;4.97;;;4.43;;
2119;SDS011;1066;52.540;13.420;2023-06-22T12:22:38;7.25;;;4.80;;
2119;SDS011;1066;52.540;13.420;2023-06-22T12:25:03;4.53;;;4.23;;
2119;SDS011;1066;52.540;13.420;2023-06-22T12:27:29;5.40;;;4.90;;
2119;SDS011;1066;52.540;13.420;2023-06-22T12:29:55;4.20;;;3.90;;
2119;SDS011;1066;52.540;13.420;2023-06-22T12:32:20;9.20;;;4.20;;
2119;SDS011;1066;52.540;13.420;2023-06-22T12:34:45;4.30;;;4.00;;
2119;SDS011;1066;52.540;13.420;2023-06-22T12:37:11;4.40;;;4.00;;
2119;SDS011;1066;52.540;13.420;2023-06-22T12:39:36;4.73;;;3.97;;
2119;SDS011;1066;52.540;13.420;2023-06-22T12:42:01;6.63;;;3.43;;
2119;SDS011;1066;52.540;13.420;2023-06-22T12:44:26;5.50;;;4.22;;
2119;SDS011;1066;52.540;13.420;2023-06-22T12:46:52;5.18;;;4.68;;
2119;SDS011;1066;52.540;13.420;2023-06-22T12:49:17;4.88;;;3.28;;
2119;SDS011;1066;52.540;13.420;2023-06-22T12:51:43;5.70;;;4.40;;
2119;SDS011;1066;52.540;13.420;2023-06-22T12:54:08;5.00;;;3.87;;
2119;SDS011;1066;52.540;13.420;2023-06-22T12:56:33;4.63;;;4.13;;
2119;SDS011;1066;52.540;13.420;2023-06-22T12:58:59;8.83;;;4.50;;
2119;SDS011;1066;52.540;13.420;2023-06-22T13:01:26;6.13;;;4.40;;
2119;SDS011;1066;52.540;13.420;2023-06-22T13:03:51;5.17;;;4.40;;
2119;SDS011;1066;52.540;13.420;2023-06-22T13:06:17;5.60;;;5.20;;
2119;SDS011;1066;52.540;13.420;2023-06-22T13:08:42;4.60;;;4.17;;
2119;SDS011;1066;52.540;13.420;2023-06-22T13:11:08;5.13;;;4.67;;
2119;SDS011;1066;52.540;13.420;2023-06-22T13:13:33;5.77;;;4.70;;
2119;SDS011;1066;52.540;13.420;2023-06-22T13:15:59;5.70;;;4.57;;
2119;SDS011;1066;52.540;13.420;2023-06-22T13:18:24;4.50;;;4.10;;
2119;SDS011;1066;52.540;13.420;2023-06-22T13:20:49;5.13;;;4.73;;
2119;SDS011;1066;52.540;13.420;2023-06-22T13:23:14;4.73;;;4.20;;
2119;SDS011;1066;52.540;13.420;2023-06-22T13:25:40;5.07;;;4.67;;
2119;SDS011;1066;52.540;13.420;2023-06-22T13:28:05;5.13;;;4.63;;
2119;SDS011;1066;52.540;13.420;2023-06-22T13:30:30;4.73;;;4.43;;
2119;SDS011;1066;52.540;13.420;2023-06-22T13:32:56;5.03;;;4.63;;
2119;SDS011;1066;52.540;13.420;2023-06-22T13:35:22;4.70;;;4.37;;
2119;SDS011;1066;52.540;13.420;2023-06-22T13:37:47;5.20;;;4.80;;
2119;SDS011;1066;52.540;13.420;2023-06-22T13:40:12;6.00;;;4.60;;
2119;SDS011;1066;52.540;13.420;2023-06-22T13:42:37;4.63;;;4.23;;
2119;SDS011;1066;52.540;13.420;2023-06-22T13:45:03;4.90;;;4.50;;
2119;SDS011;1066;52.540;13.420;2023-06-22T13:47:28;4.83;;;4.53;;
2119;SDS011;1066;52.540;13.420;2023-06-22T13:49:54;4.90;;;4.60;;
2119;SDS011;1066;52.540;13.420;2023-06-22T13:52:19;5.37;;;4.87;;
2119;SDS011;1066;52.540;13.420;2023-06-22T13:54:44;5.87;;;4.57;;
2119;SDS011;1066;52.540;13.420;2023-06-22T13:57:09;4.97;;;4.57;;
2119;SDS011;1066;52.540;13.420;2023-06-22T13:59:35;5.80;;;5.03;;
2119;SDS011;1066;52.540;13.420;2023-06-22T14:02:00;5.30;;;4.90;;
2119;SDS011;1066;52.540;13.420;2023-06-22T14:04:25;5.83;;;5.30;;
2119;SDS011;1066;52.540;13.420;2023-06-22T14:06:50;5.50;;;5.10;;
2119;SDS011;1066;52.540;13.420;2023-06-22T14:09:15;5.10;;;4.70;;
2119;SDS011;1066;52.540;13.420;2023-06-22T14:11:41;5.90;;;5.50;;
2119;SDS011;1066;52.540;13.420;2023-06-22T14:14:06;5.10;;;4.70;;
2119;SDS011;1066;52.540;13.420;2023-06-22T14:16:31;5.50;;;5.10;;
2119;SDS011;1066;52.540;13.420;2023-06-22T14:18:56;5.90;;;5.50;;
2119;SDS011;1066;52.540;13.420;2023-06-22T14:21:22;5.40;;;5.00;;
2119;SDS011;1066;52.540;13.420;2023-06-22T14:23:47;7.07;;;4.73;;
2119;SDS011;1066;52.540;13.420;2023-06-22T14:26:14;5.47;;;4.97;;
2119;SDS011;1066;52.540;13.420;2023-06-22T14:28:40;6.20;;;5.70;;
2119;SDS011;1066;52.540;13.420;2023-06-22T14:31:05;5.17;;;4.77;;
2119;SDS011;1066;52.540;13.420;2023-06-22T14:33:30;5.93;;;5.33;;
2119;SDS011;1066;52.540;13.420;2023-06-22T14:35:55;5.97;;;5.37;;
2119;SDS011;1066;52.540;13.420;2023-06-22T14:38:20;5.37;;;4.97;;
2119;SDS011;1066;52.540;13.420;2023-06-22T14:40:46;6.97;;;5.60;;
2119;SDS011;1066;52.540;13.420;2023-06-22T14:43:11;6.13;;;5.63;;
2119;SDS011;1066;52.540;13.420;2023-06-22T14:45:36;6.20;;;5.70;;
2119;SDS011;1066;52.540;13.420;2023-06-22T14:48:02;5.60;;;5.20;;
2119;SDS011;1066;52.540;13.420;2023-06-22T14:50:27;5.90;;;5.40;;